Latest Weather Observations for Armidale Airport

IDN60801

Issued at 1:03 pm EST Tuesday 30 August 2016 (issued every 30 minutes, with the page automatically refreshed every 10 minutes)

About weather observations | Map of weather stations | Latest weather observations for NSW | Other Formats
Station Details ID: 056238 Name: ARMIDALE AIRPORT AWS Lat: -30.53 Lon: 151.62 Height: 1079.0 m
Data from the previous 72 hours. | See also: Recent months at Armidale Airport
Date/Time
EST
Temp
°C
App
Temp
°C
Dew
Point
°C
Rel
Hum
%
Delta-T
°C
Wind Press
QNH
hPa
Press
MSL
hPa
Rain since
9am
mm
Dir  Spd
km/h
Gust
km/h
Spd
kts
Gust
kts
30/01:00pm 18.0 14.8 6.8 48 5.9 NW 13 20 7 11 1027.0 1026.9 0.0
30/12:30pm 18.1 15.2 6.6 47 6.0 N 11 19 6 10 1027.4 1027.2 0.0
30/12:00pm 17.1 14.6 6.6 50 5.5 NNW 9 15 5 8 1027.7 1027.6 0.0
30/11:30am 17.0 13.9 7.1 52 5.2 NNW 13 20 7 11 1028.0 1027.9 0.0
30/11:00am 16.4 13.4 7.6 56 4.6 WNW 13 19 7 10 1028.6 1028.5 0.0
30/10:30am 15.6 12.1 7.1 57 4.4 NW 15 20 8 11 1029.0 1028.9 0.0
30/10:00am 15.2 12.9 7.5 60 4.0 NW 9 15 5 8 1029.1 1029.1 0.0
30/09:30am 14.0 12.3 8.4 69 3.0 NNE 7 11 4 6 1029.4 1029.3 0.0
30/09:00am 11.7 8.6 7.4 75 2.2 NE 13 15 7 8 1029.1 1029.1 0.0
30/08:30am 10.7 7.7 7.6 81 1.6 ENE 13 17 7 9 1029.2 1029.2 0.0
30/08:00am 9.5 6.6 8.1 91 0.7 ENE 13 15 7 8 1029.1 1029.1 0.0
30/07:30am 8.3 5.4 8.0 98 0.2 ENE 13 15 7 8 1029.2 1029.2 0.0
30/07:00am 6.6 3.7 6.5 99 0.0 E 11 11 6 6 1029.0 1028.9 0.0
30/06:30am 6.7 3.4 6.6 99 0.0 ENE 13 15 7 8 1028.6 1028.5 0.0
30/06:00am 6.1 3.5 6.0 99 0.0 E 9 13 5 7 1028.2 1028.1 0.0
30/05:30am 5.9 3.2 5.8 99 0.0 E 9 11 5 6 1027.6 1027.5 0.0
30/05:00am 5.2 1.6 4.9 98 0.1 ENE 13 15 7 8 1026.9 1026.8 0.0
30/04:30am 6.5 3.2 6.2 98 0.1 E 13 15 7 8 1026.5 1026.3 0.0
30/04:00am 7.2 3.3 6.9 98 0.1 ENE 17 19 9 10 1026.1 1026.0 0.0
30/03:30am 7.3 3.0 7.0 98 0.1 E 19 20 10 11 1025.7 1025.5 0.0
30/03:00am 7.2 2.9 6.9 98 0.1 E 19 20 10 11 1025.9 1025.8 0.0
30/02:30am 7.7 3.9 7.4 98 0.1 ENE 17 20 9 11 1026.0 1025.9 0.0
30/02:00am 7.6 3.4 7.3 98 0.1 ENE 19 20 10 11 1026.1 1026.0 0.0
30/01:30am 8.2 4.0 7.3 94 0.4 NE 19 24 10 13 1026.8 1026.7 0.0
30/01:00am 8.1 3.9 7.3 95 0.4 ENE 19 22 10 12 1026.5 1026.3 0.0
30/12:30am 7.4 3.7 6.2 92 0.6 NE 15 17 8 9 1026.5 1026.3 0.0
30/12:00am 8.2 4.1 6.3 88 0.9 ENE 17 20 9 11 1026.5 1026.3 0.0
 
Date/Time
EST
Temp
°C
App
Temp
°C
Dew
Point
°C
Rel
Hum
%
Delta-T
°C
Wind Press
QNH
hPa
Press
MSL
hPa
Rain since
9am
mm
Dir  Spd
km/h
Gust
km/h
Spd
kts
Gust
kts
29/11:30pm 8.0 3.9 6.1 88 0.9 ENE 17 19 9 10 1026.1 1026.0 0.0
29/11:00pm 7.4 3.1 5.2 86 1.0 ENE 17 19 9 10 1026.6 1026.4 0.0
29/10:30pm 8.2 3.3 5.3 82 1.4 E 20 22 11 12 1026.6 1026.4 0.0
29/10:00pm 8.1 3.5 5.6 84 1.2 ENE 19 20 10 11 1026.7 1026.6 0.0
29/09:30pm 8.5 4.2 7.0 90 0.7 ENE 19 24 10 13 1027.1 1027.0 0.0
29/09:00pm 8.2 4.8 7.6 96 0.3 ENE 15 19 8 10 1027.5 1027.3 0.0
29/08:30pm 9.1 5.9 8.3 95 0.4 E 15 17 8 9 1027.5 1027.3 0.0
29/08:00pm 9.2 5.8 7.8 91 0.7 E 15 17 8 9 1027.0 1026.9 0.0
29/07:30pm 9.6 5.6 6.5 81 1.5 E 17 19 9 10 1026.8 1026.7 0.0
29/07:00pm 9.8 5.9 5.2 73 2.2 ENE 15 19 8 10 1026.6 1026.4 0.0
29/06:30pm 10.3 6.0 3.3 62 3.3 E 15 17 8 9 1026.2 1026.1 0.0
29/06:00pm 11.3 7.5 1.5 51 4.4 ESE 11 15 6 8 1026.2 1026.1 0.0
29/05:30pm 12.7 8.9 -0.9 39 5.9 ESE 9 11 5 6 1026.2 1026.1 0.0
29/05:00pm 14.0 10.5 -1.2 35 6.6 SE 7 11 4 6 1025.8 1025.6 0.0
29/04:30pm 15.5 11.6 -1.5 31 7.4 SSE 9 13 5 7 1025.6 1025.4 0.0
29/04:00pm 15.5 10.8 -1.5 31 7.4 SSE 13 15 7 8 1025.4 1025.2 0.0
29/03:30pm 16.2 11.6 -0.9 31 7.6 S 13 17 7 9 1025.6 1025.4 0.0
29/03:00pm 16.5 12.7 -1.1 30 7.8 SSE 9 13 5 7 1025.2 1025.1 0.0
29/02:30pm 16.7 13.2 -1.4 29 8.0 SSW 7 13 4 7 1025.1 1025.0 0.0
29/02:00pm 17.4 13.6 -5.1 21 9.3 NNE 6 9 3 5 1025.0 1024.8 0.0
29/01:30pm 17.2 14.3 -4.1 23 9.0 WNW 2 9 1 5 1025.2 1025.1 0.0
29/01:00pm 16.2 12.2 -6.1 21 8.9 SSW 7 13 4 7 1025.6 1025.4 0.0
29/12:30pm 16.2 12.4 -5.5 22 8.8 WSW 6 11 3 6 1025.8 1025.6 0.0
29/12:00pm 16.1 12.5 -1.9 29 7.8 ENE 7 13 4 7 1026.2 1026.1 0.0
29/11:30am 15.1 11.1 -5.9 23 8.3 ENE 7 11 4 6 1026.5 1026.3 0.0
29/11:00am 14.3 10.3 -2.6 31 7.1 ENE 9 15 5 8 1026.7 1026.6 0.0
29/10:30am 13.0 8.2 -2.9 33 6.6 ENE 13 17 7 9 1027.1 1027.0 0.0
29/10:00am 12.2 8.1 -2.8 35 6.1 ENE 9 13 5 7 1027.6 1027.5 0.0
29/09:30am 11.4 7.6 -1.0 42 5.3 E 9 13 5 7 1027.4 1027.2 0.0
29/09:00am 9.7 4.9 -2.9 41 5.0 ENE 13 15 7 8 1027.6 1027.5 0.2
29/08:30am 8.2 4.1 0.0 56 3.5 NE 11 15 6 8 1027.2 1027.1 0.2
29/08:00am 6.8 3.3 1.1 67 2.4 ENE 9 11 5 6 1027.4 1027.2 0.2
29/07:30am 4.9 1.3 0.9 75 1.7 ENE 9 11 5 6 1026.8 1026.7 0.2
29/07:00am 2.6 -1.1 -0.2 82 1.1 ENE 9 9 5 5 1026.4 1026.2 0.2
29/06:30am 2.0 -1.6 -2.3 73 1.6 NE 7 9 4 5 1026.1 1026.0 0.2
29/06:00am 2.2 -1.5 -2.5 71 1.7 NE 7 9 4 5 1025.6 1025.4 0.2
29/05:30am 2.0 -2.0 -2.1 74 1.5 NE 9 11 5 6 1025.0 1024.8 0.2
29/05:00am 1.0 -3.0 -2.6 77 1.4 NE 9 11 5 6 1024.7 1024.5 0.2
29/04:30am 0.8 -3.3 -3.1 75 1.5 ENE 9 9 5 5 1024.5 1024.3 0.2
29/04:00am 2.8 0.4 -3.1 65 2.2 CALM 0 0 0 0 1024.4 1024.2 0.2
29/03:30am 2.6 0.3 -2.5 69 1.9 CALM 0 0 0 0 1024.4 1024.2 0.2
29/03:00am 1.3 -2.4 -2.6 75 1.5 ENE 7 7 4 4 1024.1 1023.9 0.2
29/02:30am 3.5 0.2 -4.0 58 2.7 NE 4 7 2 4 1024.0 1023.8 0.2
29/02:00am 4.4 2.0 -3.4 57 2.9 CALM 0 0 0 0 1024.2 1024.0 0.2
29/01:30am 3.7 1.3 -3.3 60 2.6 CALM 0 0 0 0 1024.4 1024.2 0.2
29/01:00am 3.5 0.9 -1.8 68 2.0 NE 2 6 1 3 1024.5 1024.3 0.2
29/12:30am 1.4 -2.6 -2.2 77 1.3 ENE 9 9 5 5 1024.5 1024.3 0.2
29/12:00am 3.9 1.5 -2.9 61 2.5 CALM 0 0 0 0 1024.5 1024.3 0.2
 
Date/Time
EST
Temp
°C
App
Temp
°C
Dew
Point
°C
Rel
Hum
%
Delta-T
°C
Wind Press
QNH
hPa
Press
MSL
hPa
Rain since
9am
mm
Dir  Spd
km/h
Gust
km/h
Spd
kts
Gust
kts
28/11:30pm 4.6 1.9 -2.3 61 2.7 NW 2 6 1 3 1024.6 1024.4 0.2
28/11:00pm 3.6 -0.1 -3.0 62 2.5 N 7 7 4 4 1024.7 1024.5 0.2
28/10:30pm 3.6 -0.4 -2.3 65 2.2 NNE 9 11 5 6 1024.5 1024.3 0.2
28/10:00pm 4.6 1.3 -1.4 65 2.3 W 6 7 3 4 1024.7 1024.5 0.2
28/09:30pm 4.3 1.7 -1.7 65 2.3 W 2 6 1 3 1024.8 1024.6 0.2
28/09:00pm 6.3 2.8 -1.6 57 3.1 WSW 7 9 4 5 1024.9 1024.7 0.2
28/08:30pm 6.2 2.6 -1.9 56 3.2 SW 7 11 4 6 1024.5 1024.3 0.2
28/08:00pm 6.1 2.0 -2.7 53 3.4 WSW 9 11 5 6 1024.2 1024.0 0.2
28/07:30pm 7.0 2.5 -3.2 48 3.9 WSW 11 13 6 7 1024.2 1024.0 0.2
28/07:00pm 7.0 2.2 -2.4 51 3.7 W 13 15 7 8 1024.0 1023.8 0.2
28/06:30pm 8.4 4.5 -4.4 40 4.9 W 7 7 4 4 1023.6 1023.4 0.2
28/06:00pm 8.1 4.7 -2.0 49 4.0 W 6 7 3 4 1023.5 1023.3 0.2
28/05:30pm 10.3 5.9 -2.4 41 5.2 WSW 11 15 6 8 1023.2 1023.0 0.2
28/05:00pm 12.1 7.5 -1.1 40 5.6 W 13 17 7 9 1022.9 1022.7 0.2
28/04:30pm 12.9 7.8 -1.8 36 6.2 W 15 19 8 10 1022.7 1022.5 0.2
28/04:00pm 13.1 8.3 2.4 48 5.0 WSW 17 24 9 13 1022.8 1022.6 0.2
28/03:30pm 13.2 8.7 2.4 48 5.0 W 15 20 8 11 1022.6 1022.3 0.2
28/03:00pm 13.2 9.0 1.5 45 5.3 W 13 19 7 10 1022.6 1022.3 0.2
28/02:30pm 13.1 8.7 2.9 50 4.8 WNW 15 24 8 13 1022.6 1022.3 0.2
28/02:00pm 12.9 8.2 3.0 51 4.6 WNW 17 28 9 15 1022.6 1022.3 0.2
28/01:30pm 12.6 6.6 1.3 46 5.1 W 22 32 12 17 1022.9 1022.7 0.2
28/01:00pm 12.4 7.1 2.0 49 4.8 W 19 24 10 13 1023.1 1022.9 0.2
28/12:30pm 11.8 6.6 2.3 52 4.4 WSW 19 24 10 13 1023.4 1023.1 0.2
28/12:00pm 11.4 6.7 0.8 48 4.7 WNW 15 22 8 12 1023.8 1023.6 0.0
28/11:30am 11.5 6.1 1.2 49 4.6 WNW 19 26 10 14 1024.4 1024.2 0.0
28/11:00am 10.9 6.2 1.2 51 4.3 WNW 15 22 8 12 1024.4 1024.2 0.0
28/10:30am 10.2 6.2 3.0 61 3.3 W 13 19 7 10 1024.7 1024.5 0.0
28/10:00am 9.1 4.1 1.5 59 3.3 W 17 20 9 11 1024.7 1024.5 0.0
28/09:30am 8.1 4.1 3.0 70 2.3 W 13 17 7 9 1024.9 1024.7 0.0
28/09:00am 7.1 3.9 3.3 77 1.7 W 9 11 5 6 1024.8 1024.6 0.0
28/08:30am 6.4 3.4 3.9 84 1.1 W 9 13 5 7 1024.8 1024.6 0.0
28/08:00am 5.3 3.0 5.0 98 0.1 NW 6 7 3 4 1024.5 1024.3 0.0
28/07:30am 3.5 1.0 3.5 100 0.0 NNE 6 7 3 4 1024.6 1024.4 0.0
28/07:28am 3.4 0.8 3.4 100 0.0 NNE 6 7 3 4 1024.6 1024.4 0.0
28/07:00am 1.7 -1.2 1.6 99 0.0 NNE 6 9 3 5 1024.0 1023.8 0.0
28/06:54am 2.2 -0.6 2.1 99 0.0 NNE 6 6 3 3 1024.0 1023.8 0.0
28/06:53am 2.2 -0.6 2.1 99 0.0 NNE 6 6 3 3 1024.0 1023.8 0.0
28/06:30am 0.8 -2.4 0.7 99 0.0 N 7 9 4 5 1023.8 1023.6 0.0
28/06:00am 0.7 -2.3 0.6 99 0.0 NW 6 7 3 4 1023.2 1023.0 0.0
28/05:34am 1.1 -2.4 1.0 99 0.0 W 9 9 5 5 1023.1 1022.9 0.0
28/05:30am 1.3 -2.2 1.2 99 0.0 W 9 9 5 5 1023.1 1022.9 0.0
28/05:00am 2.1 -0.9 2.0 99 0.0 W 7 9 4 5 1022.8 1022.6 0.0
28/04:47am 2.1 -0.9 2.0 99 0.0 W 7 9 4 5 1022.7 1022.5 0.0
28/04:30am 1.9 -1.1 1.8 99 0.0 WNW 7 7 4 4 1022.5 1022.2 0.0
28/04:15am 1.8 -1.2 1.7 99 0.0 WNW 7 7 4 4 1022.4 1022.1 0.0
28/04:00am 2.0 -0.8 1.9 99 0.0 WNW 6 7 3 4 1022.5 1022.2 0.0
28/03:30am 1.1 -2.1 0.8 98 0.1 WNW 7 7 4 4 1022.5 1022.2 0.0
28/03:00am 2.8 -0.1 2.7 99 0.0 W 7 9 4 5 1022.4 1022.1 0.0
28/02:30am 2.5 -0.2 2.4 99 0.0 WNW 6 6 3 3 1022.5 1022.2 0.0
28/02:00am 2.3 -0.7 2.2 99 0.0 WNW 7 7 4 4 1022.8 1022.6 0.0
28/01:30am 2.3 -1.0 2.2 99 0.0 WNW 9 9 5 5 1023.0 1022.8 0.0
28/01:00am 1.7 -1.4 1.4 98 0.1 WNW 7 9 4 5 1023.1 1022.9 0.0
28/12:30am 2.7 0.0 2.4 98 0.1 W 6 7 3 4 1023.1 1022.9 0.0
28/12:00am 2.8 1.2 2.5 98 0.1 CALM 0 0 0 0 1023.1 1022.9 0.0
 
Date/Time
EST
Temp
°C
App
Temp
°C
Dew
Point
°C
Rel
Hum
%
Delta-T
°C
Wind Press
QNH
hPa
Press
MSL
hPa
Rain since
9am
mm
Dir  Spd
km/h
Gust
km/h
Spd
kts
Gust
kts
27/11:30pm 3.5 2.0 3.2 98 0.1 CALM 0 4 0 2 1023.0 1022.8 0.0
27/11:00pm 2.9 0.0 2.6 98 0.1 W 7 9 4 5 1023.4 1023.1 0.0
27/10:30pm 3.2 -0.4 2.8 97 0.2 W 11 11 6 6 1023.4 1023.1 0.0
27/10:00pm 3.9 0.8 3.6 98 0.1 W 9 11 5 6 1023.4 1023.1 0.0
27/09:30pm 4.4 1.7 3.5 94 0.4 WSW 7 9 4 5 1023.1 1022.9 0.0
27/09:00pm 4.2 0.1 2.4 88 0.8 SW 13 13 7 7 1023.1 1022.9 0.0
27/08:30pm 5.5 2.7 3.3 86 1.0 WSW 7 9 4 5 1022.7 1022.5 0.0
27/08:00pm 5.7 2.8 2.7 81 1.3 WSW 7 9 4 5 1022.8 1022.6 0.0
27/07:30pm 5.8 4.0 3.3 84 1.1 W 2 6 1 3 1022.6 1022.3 0.0
27/07:00pm 7.1 4.4 3.5 78 1.6 SSW 7 9 4 5 1022.5 1022.2 0.0
27/06:30pm 7.0 4.2 3.3 77 1.7 SSW 7 9 4 5 1022.4 1022.1 0.0
27/06:00pm 7.0 3.9 3.6 79 1.5 SW 9 11 5 6 1022.0 1021.8 0.0
27/05:30pm 7.8 4.7 3.5 74 2.0 SSW 9 11 5 6 1021.6 1021.3 0.0
27/05:00pm 8.3 4.9 3.8 73 2.1 SSW 11 13 6 7 1021.1 1020.9 0.0
27/04:30pm 8.9 5.4 3.7 70 2.4 SSW 11 19 6 10 1021.0 1020.7 0.0
27/04:00pm 8.9 5.0 3.5 69 2.5 SSW 13 15 7 8 1020.7 1020.4 0.0
27/03:30pm 9.2 5.7 3.4 67 2.7 S 11 17 6 9 1020.8 1020.5 0.0
27/03:00pm 9.3 5.4 3.5 67 2.7 S 13 17 7 9 1020.9 1020.6 0.0
27/02:30pm 9.1 5.3 3.7 69 2.5 SSW 13 17 7 9 1021.0 1020.7 0.0
27/02:00pm 9.2 5.7 3.4 67 2.7 SSW 11 17 6 9 1021.0 1020.7 0.0
27/01:30pm 9.0 5.0 2.8 65 2.8 S 13 17 7 9 1021.1 1020.9 0.0

Other Formats:

Comma delimited format used in spreadsheet applications
http://www.bom.gov.au/fwo/IDN60801/IDN60801.95773.axf

JavaScript Object Notation format (JSON) in row-major order
http://www.bom.gov.au/fwo/IDN60801/IDN60801.95773.json